Time;durP1;ratioP1;P1;durP2;ratioP2;P2;SDS_P1;SDS_P2;PMS_P1;PMS_P2;Temp;Humidity;BMP_temperature;BMP_pressure;BME280_temperature;BME280_humidity;BME280_pressure;Samples;Min_cycle;Max_cycle;Signal;HPM_P1;HPM_P2
2021/09/09 00:01:33;;;;;;;16.95;7.03;;;16.10;99.90;;;;;;4857210;29;20061;-86
2021/09/09 00:04:00;;;;;;;13.10;6.43;;;16.10;99.90;;;;;;4844579;29;20045;-86
2021/09/09 00:06:26;;;;;;;8.35;5.95;;;16.10;99.90;;;;;;4851907;29;20072;-87
2021/09/09 00:08:52;;;;;;;11.43;6.25;;;16.10;99.90;;;;;;4875854;29;20069;-87
2021/09/09 00:11:19;;;;;;;7.13;5.70;;;16.10;99.90;;;;;;4857886;29;20053;-87
2021/09/09 00:13:45;;;;;;;17.80;7.40;;;16.10;99.90;;;;;;4844796;29;20055;-85
2021/09/09 00:16:11;;;;;;;9.85;6.45;;;16.10;99.90;;;;;;4859559;29;20080;-85
2021/09/09 00:18:37;;;;;;;11.77;7.38;;;16.10;99.90;;;;;;4875992;29;20518;-85
2021/09/09 00:21:04;;;;;;;13.68;7.00;;;16.10;99.90;;;;;;4876074;29;20057;-86
2021/09/09 00:23:30;;;;;;;10.95;6.95;;;16.10;99.90;;;;;;4844940;29;20045;-85
2021/09/09 00:25:56;;;;;;;10.20;6.90;;;16.10;99.90;;;;;;4844691;29;20498;-88
2021/09/09 00:28:21;;;;;;;11.60;7.45;;;16.10;99.90;;;;;;4844481;29;20084;-86
2021/09/09 00:30:47;;;;;;;11.18;6.30;;;16.00;99.90;;;;;;4844705;29;20083;-86
2021/09/09 00:33:13;;;;;;;9.77;7.13;;;16.00;99.90;;;;;;4858866;29;20057;-86
2021/09/09 00:35:39;;;;;;;17.70;8.07;;;16.00;99.90;;;;;;4859684;29;20072;-86
2021/09/09 00:38:05;;;;;;;8.43;6.80;;;16.00;99.90;;;;;;4858858;29;20088;-86
2021/09/09 00:40:31;;;;;;;12.48;7.60;;;15.90;99.90;;;;;;4858831;29;20049;-86
2021/09/09 00:42:58;;;;;;;10.95;6.78;;;15.90;99.90;;;;;;4859142;29;20135;-87
2021/09/09 00:45:24;;;;;;;10.68;7.18;;;15.90;99.90;;;;;;4876031;29;20517;-85
2021/09/09 00:47:50;;;;;;;10.13;7.25;;;15.90;99.90;;;;;;4859754;29;20089;-85
2021/09/09 00:50:15;;;;;;;9.43;7.63;;;15.90;99.90;;;;;;4843757;29;20049;-86
2021/09/09 00:52:46;;;;;;;12.00;7.40;;;15.90;99.90;;;;;;4859118;29;20445;-85
2021/09/09 00:55:12;;;;;;;11.20;7.82;;;15.90;99.90;;;;;;4859129;29;20053;-86
2021/09/09 00:57:38;;;;;;;12.85;7.95;;;15.80;99.90;;;;;;4844107;29;20063;-85
2021/09/09 01:00:05;;;;;;;12.35;7.15;;;15.80;99.90;;;;;;4843073;29;20088;-85
2021/09/09 01:02:31;;;;;;;9.18;6.60;;;15.80;99.90;;;;;;4858081;29;20049;-86
2021/09/09 01:04:57;;;;;;;16.25;6.93;;;15.80;99.90;;;;;;4850009;29;20064;-86
2021/09/09 01:07:24;;;;;;;11.25;8.10;;;15.70;99.90;;;;;;4857066;29;20462;-87
2021/09/09 01:09:50;;;;;;;10.23;7.57;;;15.70;99.90;;;;;;4843917;29;20057;-85
2021/09/09 01:12:16;;;;;;;9.05;7.72;;;15.70;99.90;;;;;;4858828;29;20076;-86
2021/09/09 01:14:41;;;;;;;14.73;8.23;;;15.70;99.90;;;;;;4859297;29;20076;-87
2021/09/09 01:17:07;;;;;;;14.82;7.93;;;15.70;99.90;;;;;;4858636;29;20498;-86
2021/09/09 01:19:33;;;;;;;12.50;8.45;;;15.60;99.90;;;;;;4844198;29;20053;-86
2021/09/09 01:21:59;;;;;;;12.13;7.72;;;15.70;99.90;;;;;;4865640;29;20053;-86
2021/09/09 01:24:25;;;;;;;10.02;8.25;;;15.60;99.90;;;;;;4871534;29;20055;-86
2021/09/09 01:26:53;;;;;;;12.35;8.32;;;15.70;99.90;;;;;;4859159;29;20497;-86
2021/09/09 01:29:24;;;;;;;14.55;8.10;;;15.70;99.90;;;;;;4852433;29;20054;-86
2021/09/09 01:31:50;;;;;;;8.10;6.97;;;15.60;99.90;;;;;;4859394;29;20049;-86
2021/09/09 01:34:16;;;;;;;15.23;8.77;;;15.60;99.90;;;;;;4858296;29;20045;-86
2021/09/09 01:36:42;;;;;;;14.52;8.75;;;15.60;99.90;;;;;;4843658;29;20061;-86
2021/09/09 01:39:08;;;;;;;12.15;8.20;;;15.60;99.90;;;;;;4858348;29;20123;-87
2021/09/09 01:41:34;;;;;;;11.00;8.35;;;15.60;99.90;;;;;;4858482;29;20045;-86
2021/09/09 01:43:59;;;;;;;11.40;8.10;;;15.60;99.90;;;;;;4843638;29;20375;-87
2021/09/09 01:46:25;;;;;;;18.88;8.88;;;15.60;99.90;;;;;;4831042;29;20061;-86
2021/09/09 01:48:51;;;;;;;11.63;7.38;;;15.60;99.90;;;;;;4859338;29;20057;-86
2021/09/09 01:51:16;;;;;;;10.55;8.40;;;15.60;99.90;;;;;;4858879;29;20469;-87
2021/09/09 01:53:42;;;;;;;17.38;8.48;;;15.60;99.90;;;;;;4830498;29;20084;-86
2021/09/09 01:56:08;;;;;;;14.13;8.80;;;15.60;99.90;;;;;;4855068;29;20053;-87
2021/09/09 01:58:34;;;;;;;12.20;8.93;;;15.50;99.90;;;;;;4877889;29;20061;-85
2021/09/09 02:01:00;;;;;;;11.75;8.95;;;15.50;99.90;;;;;;4848077;29;20080;-87
2021/09/09 02:03:26;;;;;;;12.68;8.73;;;15.60;99.90;;;;;;4831541;29;20132;-87
2021/09/09 02:05:52;;;;;;;11.52;8.55;;;15.50;99.90;;;;;;4863163;29;20489;-86
2021/09/09 02:08:18;;;;;;;10.48;8.55;;;15.50;99.90;;;;;;4862238;29;20049;-86
2021/09/09 02:10:43;;;;;;;14.75;9.65;;;15.60;99.90;;;;;;4858752;29;20055;-87
2021/09/09 02:13:09;;;;;;;16.88;8.68;;;15.60;99.90;;;;;;4846736;29;20053;-87
2021/09/09 02:15:35;;;;;;;10.23;8.35;;;15.60;99.90;;;;;;4861563;29;20061;-87
2021/09/09 02:18:00;;;;;;;9.93;8.57;;;15.50;99.90;;;;;;4858965;29;20061;-86
2021/09/09 02:20:27;;;;;;;13.23;9.50;;;15.60;99.90;;;;;;4846134;29;20053;-87
2021/09/09 02:22:52;;;;;;;9.90;8.75;;;15.50;99.90;;;;;;4878589;29;20045;-87
2021/09/09 02:25:18;;;;;;;19.15;9.43;;;15.50;99.90;;;;;;4846454;29;20053;-86
2021/09/09 02:27:44;;;;;;;13.10;9.55;;;15.40;99.90;;;;;;4880830;29;20117;-87
2021/09/09 02:30:11;;;;;;;12.70;9.85;;;15.40;99.90;;;;;;4860266;29;20128;-86
2021/09/09 02:32:36;;;;;;;15.00;9.55;;;15.40;99.90;;;;;;4860752;29;20397;-86
2021/09/09 02:35:03;;;;;;;12.18;9.00;;;15.40;99.90;;;;;;4845883;29;20056;-87
2021/09/09 02:37:28;;;;;;;16.27;9.63;;;15.40;99.90;;;;;;4861213;29;20053;-85
2021/09/09 02:39:54;;;;;;;13.15;9.55;;;15.40;99.90;;;;;;4861114;29;20554;-86
2021/09/09 02:42:20;;;;;;;13.75;9.80;;;15.40;99.90;;;;;;4861226;29;20105;-86
2021/09/09 02:44:46;;;;;;;15.20;8.70;;;15.40;99.90;;;;;;4860727;29;20056;-85
2021/09/09 02:47:11;;;;;;;13.85;8.75;;;15.40;99.90;;;;;;4877326;29;20061;-86
2021/09/09 02:49:37;;;;;;;11.68;9.40;;;15.40;99.90;;;;;;4846221;29;20246;-86
2021/09/09 02:52:03;;;;;;;14.25;8.85;;;15.30;99.90;;;;;;4862090;29;20393;-86
2021/09/09 02:54:29;;;;;;;13.63;9.07;;;15.30;99.90;;;;;;4877461;29;20564;-85
2021/09/09 02:56:55;;;;;;;12.70;9.95;;;15.30;99.90;;;;;;4861361;29;20092;-86
2021/09/09 02:59:20;;;;;;;22.52;9.95;;;15.20;99.90;;;;;;4856131;29;20511;-86
2021/09/09 03:01:46;;;;;;;14.52;9.57;;;15.20;99.90;;;;;;4858174;29;20113;-85
2021/09/09 03:04:12;;;;;;;16.50;10.27;;;15.20;99.90;;;;;;4837167;29;20068;-86
2021/09/09 03:06:37;;;;;;;12.93;8.70;;;15.20;99.90;;;;;;4827366;29;20054;-86
2021/09/09 03:09:03;;;;;;;14.60;9.32;;;15.10;99.90;;;;;;4822157;29;20050;-86
2021/09/09 03:11:29;;;;;;;14.25;9.45;;;15.10;99.90;;;;;;4857842;29;20179;-86
2021/09/09 03:13:54;;;;;;;19.10;10.20;;;15.10;99.90;;;;;;4859368;29;20570;-85
2021/09/09 03:16:20;;;;;;;12.43;9.30;;;15.10;99.90;;;;;;4866706;29;20045;-86
2021/09/09 03:18:46;;;;;;;15.02;9.43;;;15.10;99.90;;;;;;4873739;29;20057;-86
2021/09/09 03:21:12;;;;;;;15.90;10.40;;;15.10;99.90;;;;;;4852955;29;20077;-86
2021/09/09 03:23:37;;;;;;;15.27;9.85;;;15.00;99.90;;;;;;4858338;29;20049;-85
2021/09/09 03:26:03;;;;;;;17.50;10.25;;;15.00;99.90;;;;;;4859373;29;20049;-86
2021/09/09 03:28:29;;;;;;;17.88;10.93;;;15.00;99.90;;;;;;4858396;29;20124;-86
2021/09/09 03:30:55;;;;;;;14.85;9.70;;;14.90;99.90;;;;;;4830525;29;20074;-85
2021/09/09 03:33:20;;;;;;;19.20;11.00;;;14.90;99.90;;;;;;4857035;29;20483;-85
2021/09/09 03:35:46;;;;;;;15.40;10.13;;;14.90;99.90;;;;;;4858280;29;20183;-85
2021/09/09 03:38:12;;;;;;;14.55;9.70;;;14.80;99.90;;;;;;4857539;29;20053;-88
2021/09/09 03:40:38;;;;;;;17.38;11.05;;;14.80;99.90;;;;;;4858039;29;20064;-87
2021/09/09 03:43:03;;;;;;;19.38;10.88;;;14.90;99.90;;;;;;4855828;29;20108;-86
2021/09/09 03:45:29;;;;;;;16.58;10.95;;;14.80;99.90;;;;;;4850374;29;20054;-86
2021/09/09 03:47:55;;;;;;;12.85;10.57;;;14.80;99.90;;;;;;4829567;29;20124;-86
2021/09/09 03:50:21;;;;;;;19.30;11.13;;;14.80;99.90;;;;;;4842412;29;20089;-86
2021/09/09 03:52:47;;;;;;;12.07;9.93;;;14.80;99.90;;;;;;4873227;29;20049;-86
2021/09/09 03:55:12;;;;;;;16.27;10.45;;;14.70;99.90;;;;;;4856886;29;20136;-88
2021/09/09 03:57:38;;;;;;;15.27;10.35;;;14.70;99.90;;;;;;4833369;29;20422;-86
2021/09/09 04:00:06;;;;;;;17.60;11.50;;;14.70;99.90;;;;;;4869896;29;20061;-86
2021/09/09 04:02:32;;;;;;;18.23;10.52;;;14.70;99.90;;;;;;4849068;29;20646;-87
2021/09/09 04:04:57;;;;;;;17.17;11.77;;;14.60;99.90;;;;;;4858320;29;20045;-87
2021/09/09 04:07:23;;;;;;;20.75;11.88;;;14.60;99.90;;;;;;4860063;29;20545;-87
2021/09/09 04:09:49;;;;;;;17.60;11.45;;;14.60;99.90;;;;;;4850019;29;20053;-87
2021/09/09 04:12:15;;;;;;;20.27;11.85;;;14.50;99.90;;;;;;4841047;29;20072;-87
2021/09/09 04:14:40;;;;;;;17.55;12.35;;;14.50;99.90;;;;;;4856486;29;20045;-86
2021/09/09 04:17:06;;;;;;;14.77;11.00;;;14.40;99.90;;;;;;4857293;29;20128;-87
2021/09/09 04:19:32;;;;;;;18.40;12.32;;;14.50;99.90;;;;;;4847069;29;20064;-87
2021/09/09 04:22:00;;;;;;;18.92;11.80;;;14.40;99.90;;;;;;4835192;29;20053;-87
2021/09/09 04:24:26;;;;;;;20.35;12.93;;;14.40;99.90;;;;;;4855946;29;20064;-87
2021/09/09 04:26:52;;;;;;;14.02;10.50;;;14.40;99.90;;;;;;4858062;29;20057;-88
2021/09/09 04:29:18;;;;;;;18.00;12.13;;;14.40;99.90;;;;;;4840146;29;20434;-88
2021/09/09 04:31:43;;;;;;;20.33;12.90;;;14.30;99.90;;;;;;4855602;29;20169;-88
2021/09/09 04:34:09;;;;;;;20.77;12.77;;;14.30;99.90;;;;;;4837168;29;20088;-87
2021/09/09 04:36:35;;;;;;;22.70;13.15;;;14.20;99.90;;;;;;4856759;29;20633;-87
2021/09/09 04:39:01;;;;;;;20.75;13.10;;;14.20;99.90;;;;;;4859855;29;20049;-87
2021/09/09 04:41:26;;;;;;;28.17;12.90;;;14.20;99.90;;;;;;4856107;29;20060;-88
2021/09/09 04:43:52;;;;;;;19.27;12.73;;;14.20;99.90;;;;;;4849733;29;20049;-88
2021/09/09 04:46:18;;;;;;;25.38;13.45;;;14.20;99.90;;;;;;4855959;29;20529;-88
2021/09/09 04:48:44;;;;;;;17.08;12.48;;;14.20;99.90;;;;;;4851161;29;20058;-87
2021/09/09 04:51:10;;;;;;;24.73;13.75;;;14.20;99.90;;;;;;4817698;29;20061;-87
2021/09/09 04:53:35;;;;;;;21.27;14.18;;;14.20;99.90;;;;;;4838242;29;20092;-87
2021/09/09 04:56:01;;;;;;;21.70;13.85;;;14.20;99.90;;;;;;4850866;29;20050;-87
2021/09/09 04:58:27;;;;;;;24.05;14.18;;;14.20;99.90;;;;;;4854874;29;20439;-88
2021/09/09 05:00:53;;;;;;;18.80;12.25;;;14.10;99.90;;;;;;4849871;29;20065;-86
2021/09/09 05:03:19;;;;;;;18.25;12.52;;;14.10;99.90;;;;;;4840568;29;20060;-88
2021/09/09 05:05:45;;;;;;;22.90;15.43;;;14.10;99.90;;;;;;4857911;29;20049;-86
2021/09/09 05:08:10;;;;;;;18.05;13.43;;;14.10;99.90;;;;;;4856161;29;20094;-87
2021/09/09 05:10:36;;;;;;;18.50;14.30;;;14.10;99.90;;;;;;4855840;29;20490;-86
2021/09/09 05:13:02;;;;;;;16.75;12.90;;;14.10;99.90;;;;;;4850633;29;20049;-87
2021/09/09 05:15:28;;;;;;;20.23;13.13;;;14.00;99.90;;;;;;4856849;29;20041;-87
2021/09/09 05:17:53;;;;;;;25.45;14.32;;;14.00;99.90;;;;;;4856269;29;20589;-87
2021/09/09 05:20:20;;;;;;;25.40;15.23;;;14.00;99.90;;;;;;4868120;29;20140;-88
2021/09/09 05:22:47;;;;;;;21.42;14.60;;;13.90;99.90;;;;;;4853541;29;20050;-88
2021/09/09 05:25:13;;;;;;;18.73;13.75;;;13.90;99.90;;;;;;4847834;29;20064;-87
2021/09/09 05:27:39;;;;;;;18.90;13.90;;;14.00;99.90;;;;;;4838834;29;20638;-87
2021/09/09 05:30:05;;;;;;;23.27;15.07;;;14.00;99.90;;;;;;4850901;29;20057;-87
2021/09/09 05:32:32;;;;;;;20.70;14.10;;;14.00;99.90;;;;;;4850930;29;20046;-87
2021/09/09 05:34:58;;;;;;;24.50;14.35;;;14.10;99.90;;;;;;4843417;29;20414;-89
2021/09/09 05:37:24;;;;;;;22.50;14.25;;;14.20;99.90;;;;;;4843208;29;20049;-87
2021/09/09 05:39:50;;;;;;;24.10;13.77;;;14.20;99.90;;;;;;4826482;29;20057;-87
2021/09/09 05:42:16;;;;;;;19.55;14.07;;;14.20;99.90;;;;;;4856506;29;20075;-87
2021/09/09 05:44:42;;;;;;;19.90;13.70;;;14.30;99.90;;;;;;4854815;29;20909;-87
2021/09/09 05:47:08;;;;;;;16.25;13.65;;;14.30;99.90;;;;;;4851040;29;20132;-87
2021/09/09 05:49:35;;;;;;;22.70;12.95;;;14.30;99.90;;;;;;4844210;29;20113;-87
2021/09/09 05:52:00;;;;;;;27.60;14.75;;;14.40;99.90;;;;;;4843150;29;20050;-87
2021/09/09 05:54:26;;;;;;;21.67;13.38;;;14.40;99.90;;;;;;4831390;29;20050;-86
2021/09/09 05:56:52;;;;;;;20.20;14.23;;;14.40;99.90;;;;;;4854468;29;20085;-87
2021/09/09 05:59:18;;;;;;;18.90;13.65;;;14.40;99.90;;;;;;4838776;29;20064;-87
2021/09/09 06:01:45;;;;;;;18.73;13.55;;;14.50;99.90;;;;;;4872826;29;20054;-86
2021/09/09 06:04:13;;;;;;;20.48;13.57;;;14.60;99.90;;;;;;4869081;29;20495;-86
2021/09/09 06:06:39;;;;;;;19.92;14.38;;;14.60;99.90;;;;;;4837757;29;20053;-87
2021/09/09 06:09:05;;;;;;;23.02;14.50;;;14.60;99.90;;;;;;4857973;29;20092;-87
2021/09/09 06:11:31;;;;;;;20.85;13.05;;;14.70;99.90;;;;;;4856894;29;20080;-87
2021/09/09 06:13:57;;;;;;;21.70;14.00;;;14.70;99.90;;;;;;4842577;29;20054;-87
2021/09/09 06:16:22;;;;;;;21.98;14.68;;;14.70;99.90;;;;;;4842292;29;20131;-88
2021/09/09 06:18:48;;;;;;;23.88;14.45;;;14.80;99.90;;;;;;4855516;29;20053;-87
2021/09/09 06:21:14;;;;;;;23.23;13.13;;;14.80;99.90;;;;;;4873622;29;20052;-86
2021/09/09 06:23:39;;;;;;;24.10;14.40;;;14.80;99.90;;;;;;4857230;29;20060;-87
2021/09/09 06:26:05;;;;;;;28.15;14.18;;;14.90;99.90;;;;;;4857218;29;20049;-87
2021/09/09 06:28:31;;;;;;;27.92;14.85;;;14.90;99.90;;;;;;4874736;29;20053;-87
2021/09/09 06:30:56;;;;;;;23.50;14.60;;;15.00;99.90;;;;;;4842973;29;20045;-87
2021/09/09 06:33:22;;;;;;;27.17;15.82;;;15.00;99.90;;;;;;4858544;29;20061;-88
2021/09/09 06:35:48;;;;;;;27.95;14.73;;;15.00;99.90;;;;;;4843074;29;20053;-88
2021/09/09 06:38:13;;;;;;;24.55;14.82;;;15.10;99.90;;;;;;4844890;29;20394;-88
2021/09/09 06:40:40;;;;;;;22.77;14.05;;;15.20;99.90;;;;;;4878872;29;20049;-89
2021/09/09 06:43:06;;;;;;;18.08;14.70;;;15.20;99.90;;;;;;4862286;29;20057;-89
2021/09/09 06:45:31;;;;;;;22.55;15.50;;;15.20;99.90;;;;;;4846366;29;20759;-89
2021/09/09 06:47:57;;;;;;;18.85;13.85;;;15.20;99.90;;;;;;4862433;29;20056;-90
2021/09/09 06:50:23;;;;;;;18.10;13.32;;;15.30;99.90;;;;;;4846776;29;20068;-90
2021/09/09 06:52:49;;;;;;;21.52;13.88;;;15.30;99.90;;;;;;4844701;29;20080;-90
2021/09/09 06:55:15;;;;;;;26.83;15.05;;;15.40;99.90;;;;;;4860973;29;20052;-90
2021/09/09 06:57:40;;;;;;;25.25;15.88;;;15.50;99.90;;;;;;4861198;29;20049;-89
2021/09/09 07:00:07;;;;;;;21.35;15.18;;;15.50;99.90;;;;;;4862319;29;20065;-89
2021/09/09 07:02:32;;;;;;;18.48;14.20;;;15.60;99.90;;;;;;4868449;29;20080;-90
2021/09/09 07:04:58;;;;;;;24.20;15.07;;;15.70;99.90;;;;;;4861907;29;20468;-90
2021/09/09 07:07:24;;;;;;;20.17;14.30;;;15.70;99.90;;;;;;4862048;29;20129;-90
2021/09/09 07:09:49;;;;;;;19.50;15.07;;;15.80;99.90;;;;;;4861170;29;20490;-89
2021/09/09 07:12:15;;;;;;;23.27;14.82;;;15.90;99.90;;;;;;4851102;29;20092;-90
2021/09/09 07:14:41;;;;;;;20.95;15.65;;;15.90;99.90;;;;;;4845997;29;20057;-89
2021/09/09 07:17:06;;;;;;;20.20;15.18;;;16.10;99.90;;;;;;4876945;29;20081;-90
2021/09/09 07:19:32;;;;;;;23.25;14.82;;;16.10;99.90;;;;;;4845968;29;20049;-90
2021/09/09 07:21:58;;;;;;;19.63;13.90;;;16.20;99.90;;;;;;4861668;29;20099;-90
2021/09/09 07:24:24;;;;;;;21.00;13.98;;;16.30;99.90;;;;;;4878117;29;20045;-90
2021/09/09 07:26:50;;;;;;;19.33;14.27;;;16.30;99.90;;;;;;4857821;29;20625;-89
2021/09/09 07:29:15;;;;;;;21.83;14.50;;;16.40;99.90;;;;;;4845383;29;20100;-86
2021/09/09 07:31:45;;;;;;;21.33;14.75;;;16.50;99.90;;;;;;4863108;29;20525;-89
2021/09/09 07:34:11;;;;;;;23.38;14.43;;;16.50;99.90;;;;;;4860531;29;20045;-90
2021/09/09 07:36:37;;;;;;;19.75;14.90;;;16.60;99.90;;;;;;4859369;29;20053;-89
2021/09/09 07:39:04;;;;;;;20.10;15.15;;;16.70;99.90;;;;;;4844849;29;20485;-90
2021/09/09 07:41:30;;;;;;;21.45;14.80;;;16.80;99.90;;;;;;4875081;29;20037;-91
2021/09/09 07:43:56;;;;;;;25.17;15.00;;;16.90;99.90;;;;;;4859671;29;20124;-90
2021/09/09 07:46:22;;;;;;;26.88;15.65;;;17.00;99.90;;;;;;4859363;29;20135;-89
2021/09/09 07:48:48;;;;;;;19.38;15.00;;;17.00;99.90;;;;;;4857931;29;20056;-90
2021/09/09 07:51:18;;;;;;;23.80;15.32;;;17.10;99.90;;;;;;4877826;29;20541;-89
2021/09/09 07:53:43;;;;;;;18.33;14.48;;;17.20;99.90;;;;;;4832250;29;20053;-87
2021/09/09 07:56:10;;;;;;;26.35;13.82;;;17.30;99.90;;;;;;4855020;29;20061;-88
2021/09/09 07:58:36;;;;;;;20.23;14.70;;;17.40;99.90;;;;;;4865987;29;20061;-87
2021/09/09 08:01:02;;;;;;;21.33;15.68;;;17.40;99.90;;;;;;4860886;29;20056;-86
2021/09/09 08:03:28;;;;;;;20.42;15.43;;;17.60;99.90;;;;;;4860582;29;20067;-87
2021/09/09 08:05:54;;;;;;;25.13;16.52;;;17.70;99.90;;;;;;4876062;29;20059;-87
2021/09/09 08:08:19;;;;;;;18.23;14.60;;;17.70;99.90;;;;;;4844661;29;20049;-86
2021/09/09 08:10:45;;;;;;;22.63;15.45;;;17.90;99.90;;;;;;4859925;29;20105;-86
2021/09/09 08:13:11;;;;;;;19.83;12.75;;;18.00;99.90;;;;;;4876096;29;20059;-87
2021/09/09 08:15:37;;;;;;;16.88;13.65;;;18.10;99.90;;;;;;4859688;29;20513;-88
2021/09/09 08:18:04;;;;;;;25.17;13.55;;;18.20;99.90;;;;;;4860647;29;20049;-87
2021/09/09 08:20:30;;;;;;;19.83;13.95;;;18.30;99.90;;;;;;4860736;29;20053;-87
2021/09/09 08:22:55;;;;;;;23.52;14.18;;;18.30;99.90;;;;;;4874827;29;20105;-88
2021/09/09 08:25:22;;;;;;;19.70;13.77;;;18.40;99.90;;;;;;4860372;29;20131;-87
2021/09/09 08:27:48;;;;;;;20.35;13.65;;;18.50;99.90;;;;;;4859417;29;20154;-87
2021/09/09 08:30:13;;;;;;;18.73;12.98;;;18.60;99.90;;;;;;4860231;29;20068;-87
2021/09/09 08:32:39;;;;;;;18.63;12.85;;;18.70;99.90;;;;;;4859443;29;20104;-87
2021/09/09 08:35:06;;;;;;;19.63;13.52;;;18.80;99.90;;;;;;4859860;29;20513;-87
2021/09/09 08:37:31;;;;;;;29.60;15.23;;;18.90;99.90;;;;;;4860332;29;20506;-87
2021/09/09 08:39:58;;;;;;;17.30;13.25;;;18.90;99.90;;;;;;4874636;29;20081;-87
2021/09/09 08:42:24;;;;;;;22.80;13.70;;;19.00;99.90;;;;;;4852494;29;20057;-87
2021/09/09 08:44:50;;;;;;;19.40;13.98;;;19.10;99.90;;;;;;4843607;29;20137;-87
2021/09/09 08:47:17;;;;;;;18.05;13.13;;;19.20;99.90;;;;;;4864904;29;20493;-87
2021/09/09 08:49:43;;;;;;;21.05;13.20;;;19.20;99.90;;;;;;4874590;29;20423;-87
2021/09/09 08:52:11;;;;;;;23.90;13.50;;;19.30;99.90;;;;;;4860046;29;20421;-87
2021/09/09 08:54:37;;;;;;;20.45;13.90;;;19.40;99.90;;;;;;4843563;29;20077;-87
2021/09/09 08:57:03;;;;;;;22.45;12.45;;;19.50;99.90;;;;;;4872806;29;20075;-88
2021/09/09 08:59:29;;;;;;;18.33;13.43;;;19.50;99.90;;;;;;4875136;29;20096;-88
2021/09/09 09:02:09;;;;;;;14.57;12.20;;;19.60;99.90;;;;;;4868333;29;20049;-87
2021/09/09 09:04:36;;;;;;;16.53;13.33;;;19.60;99.90;;;;;;4873409;29;20044;-87
2021/09/09 09:07:05;;;;;;;17.17;12.20;;;19.80;99.90;;;;;;4857821;29;20055;-87
2021/09/09 09:09:34;;;;;;;16.52;12.60;;;19.90;99.90;;;;;;4859568;29;20405;-87
2021/09/09 09:12:04;;;;;;;22.85;13.05;;;19.90;99.90;;;;;;4875278;29;20610;-88
2021/09/09 09:14:30;;;;;;;14.80;11.88;;;20.10;99.90;;;;;;4859545;29;20133;-88
2021/09/09 09:17:05;;;;;;;20.13;12.20;;;20.20;99.90;;;;;;4854762;29;20041;-87
2021/09/09 09:19:34;;;;;;;18.13;12.40;;;20.30;99.90;;;;;;4874552;29;20060;-88
2021/09/09 09:22:01;;;;;;;18.02;13.13;;;20.40;99.90;;;;;;4859011;29;20128;-87
2021/09/09 09:24:32;;;;;;;15.82;11.88;;;20.40;99.90;;;;;;4875747;29;20051;-87
2021/09/09 09:27:07;;;;;;;17.25;12.32;;;20.50;99.90;;;;;;4858233;29;20396;-88
2021/09/09 09:29:33;;;;;;;20.40;12.27;;;20.60;99.90;;;;;;4859115;29;20052;-88
2021/09/09 09:32:09;;;;;;;20.70;12.18;;;20.70;99.90;;;;;;4873036;29;20135;-88
2021/09/09 09:34:35;;;;;;;20.85;12.25;;;20.80;99.90;;;;;;4843230;29;20045;-88
2021/09/09 09:37:01;;;;;;;23.00;12.25;;;20.80;99.90;;;;;;4874144;29;20136;-88
2021/09/09 09:39:27;;;;;;;21.05;13.32;;;20.90;99.90;;;;;;4874749;29;20081;-88
2021/09/09 09:42:01;;;;;;;15.18;12.32;;;21.00;99.90;;;;;;4872884;29;20093;-88
2021/09/09 09:44:36;;;;;;;17.77;12.27;;;21.10;99.90;;;;;;4854457;29;20053;-88
2021/09/09 09:47:12;;;;;;;14.95;10.95;;;21.20;99.90;;;;;;4858258;29;20288;-87
2021/09/09 09:49:42;;;;;;;16.17;11.68;;;21.30;99.90;;;;;;4842943;29;20513;-88
2021/09/09 09:52:08;;;;;;;17.98;11.63;;;21.40;99.90;;;;;;4861352;29;20052;-89
2021/09/09 09:54:35;;;;;;;17.88;12.50;;;21.40;99.90;;;;;;4856522;29;20041;-89
2021/09/09 09:57:01;;;;;;;13.73;11.05;;;21.50;99.90;;;;;;4856618;29;20040;-88
2021/09/09 09:59:27;;;;;;;15.25;12.85;;;21.60;99.90;;;;;;4855695;29;20061;-87
2021/09/09 10:01:53;;;;;;;18.65;12.60;;;21.70;99.90;;;;;;4837880;29;20127;-88
2021/09/09 10:04:21;;;;;;;16.58;11.25;;;21.80;99.90;;;;;;4871855;29;20185;-88
2021/09/09 10:06:51;;;;;;;18.10;10.18;;;21.80;99.90;;;;;;4855433;29;20064;-88
2021/09/09 10:09:19;;;;;;;14.02;10.95;;;21.90;99.90;;;;;;4856044;29;20056;-87
2021/09/09 10:11:45;;;;;;;16.70;11.07;;;22.00;99.90;;;;;;4858766;29;20073;-90
2021/09/09 10:14:20;;;;;;;17.10;10.75;;;22.10;99.90;;;;;;4861633;29;20068;-88
2021/09/09 10:16:46;;;;;;;19.38;12.05;;;22.20;99.90;;;;;;4847014;29;20505;-90
2021/09/09 10:19:13;;;;;;;15.93;12.40;;;22.30;99.90;;;;;;4870446;29;20148;-87
2021/09/09 10:21:46;;;;;;;19.05;11.55;;;22.30;99.90;;;;;;4874517;29;20048;-87
2021/09/09 10:24:17;;;;;;;14.38;11.35;;;22.30;99.90;;;;;;4878666;29;20053;-88
2021/09/09 10:26:44;;;;;;;15.05;10.35;;;22.40;99.90;;;;;;4877785;29;20080;-87
2021/09/09 10:29:43;;;;;;;15.68;11.13;;;22.40;99.90;;;;;;4869759;29;20056;-90
2021/09/09 10:32:32;;;;;;;12.25;10.52;;;22.50;99.90;;;;;;4807056;29;20057;-91
2021/09/09 10:35:16;;;;;;;12.48;10.48;;;22.60;99.90;;;;;;4860197;29;20049;-90
2021/09/09 10:37:45;;;;;;;11.30;9.82;;;22.70;99.90;;;;;;4862151;29;20124;-86
2021/09/09 10:40:32;;;;;;;13.90;11.10;;;22.70;99.90;;;;;;4861714;29;20057;-92
2021/09/09 10:43:19;;;;;;;17.60;9.73;;;22.80;99.90;;;;;;4861458;29;20088;-90
2021/09/09 10:45:45;;;;;;;20.92;10.98;;;22.90;99.90;;;;;;4864121;29;20056;-89
2021/09/09 10:48:14;;;;;;;13.50;10.90;;;23.00;99.90;;;;;;4846410;29;20049;-90
2021/09/09 10:50:41;;;;;;;15.50;10.02;;;23.00;99.90;;;;;;4861569;29;20063;-90
2021/09/09 10:53:08;;;;;;;18.40;11.48;;;23.00;99.90;;;;;;4861324;29;20045;-92
2021/09/09 10:55:39;;;;;;;16.48;10.77;;;23.00;99.90;;;;;;4861618;29;20080;-92
2021/09/09 10:58:20;;;;;;;21.55;11.40;;;23.10;99.90;;;;;;4877139;29;20060;-92
2021/09/09 11:00:58;;;;;;;15.57;10.85;;;23.20;99.90;;;;;;4844235;29;20508;-88
2021/09/09 11:03:50;;;;;;;20.23;11.43;;;23.20;99.90;;;;;;4873086;29;20108;-91
2021/09/09 11:06:21;;;;;;;19.00;11.02;;;23.30;99.90;;;;;;4868459;29;20132;-91
2021/09/09 11:08:50;;;;;;;24.95;12.75;;;23.30;99.90;;;;;;4861470;29;20061;-88
2021/09/09 11:11:24;;;;;;;14.02;11.13;;;23.40;99.90;;;;;;4846571;29;20049;-91
2021/09/09 11:13:57;;;;;;;15.98;10.77;;;23.50;99.90;;;;;;4845979;29;20108;-88
2021/09/09 11:16:25;;;;;;;15.38;11.50;;;23.50;99.90;;;;;;4861206;29;20041;-90
2021/09/09 11:18:51;;;;;;;18.55;11.20;;;23.50;99.90;;;;;;4883185;29;20072;-88
2021/09/09 11:21:25;;;;;;;17.55;11.25;;;23.70;99.90;;;;;;4877871;29;20060;-92
2021/09/09 11:23:59;;;;;;;20.38;10.60;;;23.70;99.90;;;;;;4860562;29;20049;-88
2021/09/09 11:26:25;;;;;;;16.70;9.48;;;23.70;99.90;;;;;;4875234;29;20048;-91
2021/09/09 11:28:52;;;;;;;16.02;10.27;;;23.80;99.90;;;;;;4860019;29;20092;-87
2021/09/09 11:31:20;;;;;;;18.77;10.40;;;23.80;99.90;;;;;;4862198;29;20056;-90
2021/09/09 11:34:01;;;;;;;17.13;9.77;;;23.90;99.90;;;;;;4859497;29;20376;-89
2021/09/09 11:36:29;;;;;;;12.65;9.77;;;24.00;99.90;;;;;;4859119;29;20045;-89
2021/09/09 11:38:57;;;;;;;15.50;10.03;;;24.10;99.90;;;;;;4861526;29;20056;-89
2021/09/09 11:41:25;;;;;;;12.60;9.10;;;24.10;99.90;;;;;;4859839;29;20149;-91
2021/09/09 11:43:56;;;;;;;12.27;8.23;;;24.20;99.90;;;;;;4876004;29;20053;-90
2021/09/09 11:46:50;;;;;;;9.45;8.45;;;24.30;99.90;;;;;;4859430;29;20047;-92
2021/09/09 11:49:18;;;;;;;15.98;9.00;;;24.40;99.90;;;;;;4849728;29;20490;-91
2021/09/09 11:51:45;;;;;;;11.40;8.25;;;24.50;99.90;;;;;;4858761;29;20059;-92
2021/09/09 11:54:20;;;;;;;9.02;7.30;;;24.60;99.90;;;;;;4843086;29;20045;-91
2021/09/09 11:56:47;;;;;;;14.32;7.15;;;24.70;99.90;;;;;;4857581;29;20053;-92
2021/09/09 11:59:18;;;;;;;9.18;6.85;;;24.90;99.90;;;;;;4860105;29;20300;-91
2021/09/09 12:01:47;;;;;;;10.50;6.70;;;25.00;99.90;;;;;;4860759;29;20052;-91
2021/09/09 12:04:13;;;;;;;8.15;6.03;;;25.20;99.90;;;;;;4860227;29;20498;-93
2021/09/09 12:06:40;;;;;;;8.05;6.03;;;25.20;99.90;;;;;;4845018;29;20045;-90
2021/09/09 12:09:05;;;;;;;10.07;5.78;;;25.40;99.90;;;;;;4860574;29;20056;-92
2021/09/09 12:11:33;;;;;;;11.23;5.80;;;25.50;99.90;;;;;;4876990;29;20451;-90
2021/09/09 12:14:15;;;;;;;9.43;6.00;;;25.60;99.90;;;;;;4860065;29;20063;-89
2021/09/09 12:16:41;;;;;;;7.97;5.40;;;25.70;99.90;;;;;;4844114;29;20136;-91
2021/09/09 12:19:07;;;;;;;11.05;6.35;;;25.80;99.90;;;;;;4840099;29;20497;-90
2021/09/09 12:21:34;;;;;;;7.20;4.95;;;26.00;99.90;;;;;;4860386;29;20057;-90
2021/09/09 12:24:06;;;;;;;7.20;5.35;;;26.10;99.90;;;;;;4853494;29;20053;-91
2021/09/09 12:26:34;;;;;;;13.00;5.70;;;26.30;99.90;;;;;;4850310;29;20086;-91
2021/09/09 12:29:11;;;;;;;5.60;5.03;;;26.50;99.90;;;;;;4856794;29;20084;-91
2021/09/09 12:31:37;;;;;;;7.97;5.63;;;26.70;99.90;;;;;;4860136;29;20053;-92